Terminal Aerodrome Forecast
Issued by NWS

Home | Current Version | Previous Version | Text Only | Print | Product List | Glossary On
Versions: 1 2 3 4 5 6 7 8 9 10 11 12 13 14 15 16 17 18 19 20 21 22
885
FTUS44 KFWD 251731
TAFDAL
TAF
KDAL 251731Z 2518/2618 18018G28KT P6SM SCT300
     FM260400 17016G26KT P6SM BKN025
     FM260600 17017KT P6SM OVC015
     FM261500 32018KT P6SM OVC015=

USA.gov is the U.S. government's official web portal to all federal, state and local government web resources and services.